sensor_id;sensor_type;location;lat;lon;timestamp;temperature;humidity
16999;DHT22;10211;49.476;11.010;2023-03-31T00:00:11;9.10;99.90
16999;DHT22;10211;49.476;11.010;2023-03-31T00:02:39;9.10;99.90
16999;DHT22;10211;49.476;11.010;2023-03-31T00:05:07;9.20;99.90
16999;DHT22;10211;49.476;11.010;2023-03-31T00:07:34;9.20;99.90
16999;DHT22;10211;49.476;11.010;2023-03-31T00:10:02;9.30;99.90
16999;DHT22;10211;49.476;11.010;2023-03-31T00:12:31;9.30;99.90
16999;DHT22;10211;49.476;11.010;2023-03-31T00:14:57;9.30;99.90
16999;DHT22;10211;49.476;11.010;2023-03-31T00:17:24;9.20;99.90
16999;DHT22;10211;49.476;11.010;2023-03-31T00:19:51;9.20;99.90
16999;DHT22;10211;49.476;11.010;2023-03-31T00:22:18;9.10;99.90
16999;DHT22;10211;49.476;11.010;2023-03-31T00:24:47;9.10;99.90
16999;DHT22;10211;49.476;11.010;2023-03-31T00:27:13;9.10;99.90
16999;DHT22;10211;49.476;11.010;2023-03-31T00:29:42;9.10;99.90
16999;DHT22;10211;49.476;11.010;2023-03-31T00:32:10;9.10;99.90
16999;DHT22;10211;49.476;11.010;2023-03-31T00:34:38;9.10;99.90
16999;DHT22;10211;49.476;11.010;2023-03-31T00:37:06;9.00;99.90
16999;DHT22;10211;49.476;11.010;2023-03-31T00:39:34;9.00;99.90
16999;DHT22;10211;49.476;11.010;2023-03-31T00:42:01;8.80;99.90
16999;DHT22;10211;49.476;11.010;2023-03-31T00:44:29;8.80;99.90
16999;DHT22;10211;49.476;11.010;2023-03-31T00:47:02;8.70;99.90
16999;DHT22;10211;49.476;11.010;2023-03-31T00:49:34;8.70;99.90
16999;DHT22;10211;49.476;11.010;2023-03-31T00:52:05;8.70;99.90
16999;DHT22;10211;49.476;11.010;2023-03-31T00:54:33;8.70;99.90
16999;DHT22;10211;49.476;11.010;2023-03-31T00:57:01;8.70;99.90
16999;DHT22;10211;49.476;11.010;2023-03-31T00:59:34;8.70;99.90
16999;DHT22;10211;49.476;11.010;2023-03-31T01:02:04;8.80;99.90
16999;DHT22;10211;49.476;11.010;2023-03-31T01:04:33;8.80;99.90
16999;DHT22;10211;49.476;11.010;2023-03-31T01:07:04;8.80;99.90
16999;DHT22;10211;49.476;11.010;2023-03-31T01:09:33;8.80;99.90
16999;DHT22;10211;49.476;11.010;2023-03-31T01:12:06;8.80;99.90
16999;DHT22;10211;49.476;11.010;2023-03-31T01:14:33;8.80;99.90
16999;DHT22;10211;49.476;11.010;2023-03-31T01:17:00;8.80;99.90
16999;DHT22;10211;49.476;11.010;2023-03-31T01:19:46;8.70;99.90
16999;DHT22;10211;49.476;11.010;2023-03-31T01:22:34;8.70;99.90
16999;DHT22;10211;49.476;11.010;2023-03-31T01:28:19;8.60;99.90
16999;DHT22;10211;49.476;11.010;2023-03-31T01:40:24;8.60;99.90
16999;DHT22;10211;49.476;11.010;2023-03-31T01:42:58;8.60;99.90
16999;DHT22;10211;49.476;11.010;2023-03-31T01:45:34;8.60;99.90
16999;DHT22;10211;49.476;11.010;2023-03-31T01:48:07;8.60;99.90
16999;DHT22;10211;49.476;11.010;2023-03-31T01:50:42;8.60;99.90
16999;DHT22;10211;49.476;11.010;2023-03-31T01:53:16;8.60;99.90
16999;DHT22;10211;49.476;11.010;2023-03-31T01:55:51;8.60;99.90
16999;DHT22;10211;49.476;11.010;2023-03-31T01:58:24;8.70;99.90
16999;DHT22;10211;49.476;11.010;2023-03-31T02:00:57;8.70;99.90
16999;DHT22;10211;49.476;11.010;2023-03-31T02:03:28;8.70;99.90
16999;DHT22;10211;49.476;11.010;2023-03-31T02:06:02;8.80;99.90
16999;DHT22;10211;49.476;11.010;2023-03-31T02:08:34;8.80;99.90
16999;DHT22;10211;49.476;11.010;2023-03-31T02:11:04;8.80;99.90
16999;DHT22;10211;49.476;11.010;2023-03-31T02:13:31;8.90;99.90
16999;DHT22;10211;49.476;11.010;2023-03-31T02:16:03;8.90;99.90
16999;DHT22;10211;49.476;11.010;2023-03-31T02:18:33;8.90;99.90
16999;DHT22;10211;49.476;11.010;2023-03-31T02:21:04;9.00;99.90
16999;DHT22;10211;49.476;11.010;2023-03-31T02:23:32;9.00;99.90
16999;DHT22;10211;49.476;11.010;2023-03-31T02:26:02;9.00;99.90
16999;DHT22;10211;49.476;11.010;2023-03-31T02:28:31;9.00;99.90
16999;DHT22;10211;49.476;11.010;2023-03-31T02:31:16;9.00;99.90
16999;DHT22;10211;49.476;11.010;2023-03-31T02:33:47;9.00;99.90
16999;DHT22;10211;49.476;11.010;2023-03-31T02:36:14;9.10;99.90
16999;DHT22;10211;49.476;11.010;2023-03-31T02:38:45;9.10;99.90
16999;DHT22;10211;49.476;11.010;2023-03-31T02:41:13;9.10;99.90
16999;DHT22;10211;49.476;11.010;2023-03-31T02:43:41;9.20;99.90
16999;DHT22;10211;49.476;11.010;2023-03-31T02:46:08;9.20;99.90
16999;DHT22;10211;49.476;11.010;2023-03-31T02:48:38;9.20;99.90
16999;DHT22;10211;49.476;11.010;2023-03-31T02:54:19;9.30;99.90
16999;DHT22;10211;49.476;11.010;2023-03-31T02:57:10;9.40;99.90
16999;DHT22;10211;49.476;11.010;2023-03-31T02:59:47;9.30;99.90
16999;DHT22;10211;49.476;11.010;2023-03-31T03:02:17;9.30;99.90
16999;DHT22;10211;49.476;11.010;2023-03-31T03:05:10;9.30;99.90
16999;DHT22;10211;49.476;11.010;2023-03-31T03:07:46;9.30;99.90
16999;DHT22;10211;49.476;11.010;2023-03-31T03:10:19;9.30;99.90
16999;DHT22;10211;49.476;11.010;2023-03-31T03:12:53;9.30;99.90
16999;DHT22;10211;49.476;11.010;2023-03-31T03:15:29;9.30;99.90
16999;DHT22;10211;49.476;11.010;2023-03-31T03:17:57;9.30;99.90
16999;DHT22;10211;49.476;11.010;2023-03-31T03:20:25;9.30;99.90
16999;DHT22;10211;49.476;11.010;2023-03-31T03:22:51;9.30;99.90
16999;DHT22;10211;49.476;11.010;2023-03-31T03:25:18;9.30;99.90
16999;DHT22;10211;49.476;11.010;2023-03-31T03:27:45;9.30;99.90
16999;DHT22;10211;49.476;11.010;2023-03-31T03:30:13;9.30;99.90
16999;DHT22;10211;49.476;11.010;2023-03-31T03:32:41;9.30;99.90
16999;DHT22;10211;49.476;11.010;2023-03-31T03:35:09;9.30;99.90
16999;DHT22;10211;49.476;11.010;2023-03-31T03:37:36;9.30;99.90
16999;DHT22;10211;49.476;11.010;2023-03-31T03:40:04;9.30;99.90
16999;DHT22;10211;49.476;11.010;2023-03-31T03:42:31;9.30;99.90
16999;DHT22;10211;49.476;11.010;2023-03-31T03:44:58;9.30;99.90
16999;DHT22;10211;49.476;11.010;2023-03-31T03:47:25;9.30;99.90
16999;DHT22;10211;49.476;11.010;2023-03-31T03:49:53;9.40;99.90
16999;DHT22;10211;49.476;11.010;2023-03-31T03:52:20;9.40;99.90
16999;DHT22;10211;49.476;11.010;2023-03-31T03:54:47;9.40;99.90
16999;DHT22;10211;49.476;11.010;2023-03-31T03:57:14;9.40;99.90
16999;DHT22;10211;49.476;11.010;2023-03-31T03:59:41;9.40;99.90
16999;DHT22;10211;49.476;11.010;2023-03-31T04:02:07;9.40;99.90
16999;DHT22;10211;49.476;11.010;2023-03-31T04:04:34;9.30;99.90
16999;DHT22;10211;49.476;11.010;2023-03-31T04:07:02;9.20;99.90
16999;DHT22;10211;49.476;11.010;2023-03-31T04:09:29;9.10;99.90
16999;DHT22;10211;49.476;11.010;2023-03-31T04:11:56;9.00;99.90
16999;DHT22;10211;49.476;11.010;2023-03-31T04:14:22;8.90;99.90
16999;DHT22;10211;49.476;11.010;2023-03-31T04:16:50;8.90;99.90
16999;DHT22;10211;49.476;11.010;2023-03-31T04:19:17;8.90;99.90
16999;DHT22;10211;49.476;11.010;2023-03-31T04:21:46;8.90;99.90
16999;DHT22;10211;49.476;11.010;2023-03-31T04:24:16;8.90;99.90
16999;DHT22;10211;49.476;11.010;2023-03-31T04:26:46;8.90;99.90
16999;DHT22;10211;49.476;11.010;2023-03-31T04:29:15;8.90;99.90
16999;DHT22;10211;49.476;11.010;2023-03-31T04:31:44;8.90;99.90
16999;DHT22;10211;49.476;11.010;2023-03-31T04:34:12;8.90;99.90
16999;DHT22;10211;49.476;11.010;2023-03-31T04:36:39;8.80;99.90
16999;DHT22;10211;49.476;11.010;2023-03-31T04:39:11;8.90;99.90
16999;DHT22;10211;49.476;11.010;2023-03-31T04:41:39;8.90;99.90
16999;DHT22;10211;49.476;11.010;2023-03-31T04:44:06;8.90;99.90
16999;DHT22;10211;49.476;11.010;2023-03-31T04:46:34;8.90;99.90
16999;DHT22;10211;49.476;11.010;2023-03-31T04:49:01;8.90;99.90
16999;DHT22;10211;49.476;11.010;2023-03-31T04:51:30;9.00;99.90
16999;DHT22;10211;49.476;11.010;2023-03-31T04:53:56;9.00;99.90
16999;DHT22;10211;49.476;11.010;2023-03-31T04:56:23;9.00;99.90
16999;DHT22;10211;49.476;11.010;2023-03-31T04:58:51;9.00;99.90
16999;DHT22;10211;49.476;11.010;2023-03-31T05:01:18;9.00;99.90
16999;DHT22;10211;49.476;11.010;2023-03-31T05:03:45;9.00;99.90
16999;DHT22;10211;49.476;11.010;2023-03-31T05:06:12;9.00;99.90
16999;DHT22;10211;49.476;11.010;2023-03-31T05:08:38;9.00;99.90
16999;DHT22;10211;49.476;11.010;2023-03-31T05:11:05;9.00;99.90
16999;DHT22;10211;49.476;11.010;2023-03-31T05:13:32;9.00;99.90
16999;DHT22;10211;49.476;11.010;2023-03-31T05:16:06;9.00;99.90
16999;DHT22;10211;49.476;11.010;2023-03-31T05:18:33;9.00;99.90
16999;DHT22;10211;49.476;11.010;2023-03-31T05:21:09;9.00;99.90
16999;DHT22;10211;49.476;11.010;2023-03-31T05:23:36;9.00;99.90
16999;DHT22;10211;49.476;11.010;2023-03-31T05:26:02;9.00;99.90
16999;DHT22;10211;49.476;11.010;2023-03-31T05:28:30;9.00;99.90
16999;DHT22;10211;49.476;11.010;2023-03-31T05:30:58;9.00;99.90
16999;DHT22;10211;49.476;11.010;2023-03-31T05:33:26;9.00;99.90
16999;DHT22;10211;49.476;11.010;2023-03-31T05:35:53;9.00;99.90
16999;DHT22;10211;49.476;11.010;2023-03-31T05:38:20;9.00;99.90
16999;DHT22;10211;49.476;11.010;2023-03-31T05:40:47;9.10;99.90
16999;DHT22;10211;49.476;11.010;2023-03-31T05:43:13;9.10;99.90
16999;DHT22;10211;49.476;11.010;2023-03-31T05:45:40;9.10;99.90
16999;DHT22;10211;49.476;11.010;2023-03-31T05:48:07;9.10;99.90
16999;DHT22;10211;49.476;11.010;2023-03-31T05:50:35;9.20;99.90
16999;DHT22;10211;49.476;11.010;2023-03-31T05:53:01;9.20;99.90
16999;DHT22;10211;49.476;11.010;2023-03-31T05:55:28;9.30;99.90
16999;DHT22;10211;49.476;11.010;2023-03-31T05:57:55;9.30;99.90
16999;DHT22;10211;49.476;11.010;2023-03-31T06:00:22;9.40;99.90
16999;DHT22;10211;49.476;11.010;2023-03-31T06:02:49;9.40;99.90
16999;DHT22;10211;49.476;11.010;2023-03-31T06:05:15;9.40;99.90
16999;DHT22;10211;49.476;11.010;2023-03-31T06:07:44;9.40;99.90
16999;DHT22;10211;49.476;11.010;2023-03-31T06:10:10;9.50;99.90
16999;DHT22;10211;49.476;11.010;2023-03-31T06:12:37;9.50;99.90
16999;DHT22;10211;49.476;11.010;2023-03-31T06:15:04;9.50;99.90
16999;DHT22;10211;49.476;11.010;2023-03-31T06:17:31;9.60;99.90
16999;DHT22;10211;49.476;11.010;2023-03-31T06:19:58;9.60;99.90
16999;DHT22;10211;49.476;11.010;2023-03-31T06:22:24;9.60;99.90
16999;DHT22;10211;49.476;11.010;2023-03-31T06:24:52;9.60;99.90
16999;DHT22;10211;49.476;11.010;2023-03-31T06:27:19;9.60;99.90
16999;DHT22;10211;49.476;11.010;2023-03-31T06:29:46;9.70;99.90
16999;DHT22;10211;49.476;11.010;2023-03-31T06:32:14;9.60;99.90
16999;DHT22;10211;49.476;11.010;2023-03-31T06:34:41;9.70;99.90
16999;DHT22;10211;49.476;11.010;2023-03-31T06:37:08;9.70;99.90
16999;DHT22;10211;49.476;11.010;2023-03-31T06:39:34;9.60;99.90
16999;DHT22;10211;49.476;11.010;2023-03-31T06:42:03;9.50;99.90
16999;DHT22;10211;49.476;11.010;2023-03-31T06:44:29;9.50;99.90
16999;DHT22;10211;49.476;11.010;2023-03-31T06:46:56;9.40;99.90
16999;DHT22;10211;49.476;11.010;2023-03-31T06:49:23;9.40;99.90
16999;DHT22;10211;49.476;11.010;2023-03-31T06:51:49;9.30;99.90
16999;DHT22;10211;49.476;11.010;2023-03-31T06:54:16;9.20;99.90
16999;DHT22;10211;49.476;11.010;2023-03-31T06:56:43;9.10;99.90
16999;DHT22;10211;49.476;11.010;2023-03-31T06:59:11;9.10;99.90
16999;DHT22;10211;49.476;11.010;2023-03-31T07:01:39;9.00;99.90
16999;DHT22;10211;49.476;11.010;2023-03-31T07:04:07;9.00;99.90
16999;DHT22;10211;49.476;11.010;2023-03-31T07:06:33;8.90;99.90
16999;DHT22;10211;49.476;11.010;2023-03-31T07:09:00;8.80;99.90
16999;DHT22;10211;49.476;11.010;2023-03-31T07:11:28;8.80;99.90
16999;DHT22;10211;49.476;11.010;2023-03-31T07:13:55;8.80;99.90
16999;DHT22;10211;49.476;11.010;2023-03-31T07:16:23;8.80;99.90
16999;DHT22;10211;49.476;11.010;2023-03-31T07:18:51;8.80;99.90
16999;DHT22;10211;49.476;11.010;2023-03-31T07:21:19;8.80;99.90
16999;DHT22;10211;49.476;11.010;2023-03-31T07:23:46;8.80;99.90
16999;DHT22;10211;49.476;11.010;2023-03-31T07:26:12;8.80;99.90
16999;DHT22;10211;49.476;11.010;2023-03-31T07:28:39;8.80;99.90
16999;DHT22;10211;49.476;11.010;2023-03-31T07:31:13;8.80;99.90
16999;DHT22;10211;49.476;11.010;2023-03-31T07:33:41;8.80;99.90
16999;DHT22;10211;49.476;11.010;2023-03-31T07:36:08;8.90;99.90
16999;DHT22;10211;49.476;11.010;2023-03-31T07:38:35;9.00;99.90
16999;DHT22;10211;49.476;11.010;2023-03-31T07:41:02;9.10;99.90
16999;DHT22;10211;49.476;11.010;2023-03-31T07:43:29;9.10;99.90
16999;DHT22;10211;49.476;11.010;2023-03-31T07:45:56;9.10;99.90
16999;DHT22;10211;49.476;11.010;2023-03-31T07:48:22;9.20;99.90
16999;DHT22;10211;49.476;11.010;2023-03-31T07:50:50;9.20;99.90
16999;DHT22;10211;49.476;11.010;2023-03-31T07:53:17;9.20;99.90
16999;DHT22;10211;49.476;11.010;2023-03-31T07:55:44;9.30;99.90
16999;DHT22;10211;49.476;11.010;2023-03-31T07:58:12;9.30;99.90
16999;DHT22;10211;49.476;11.010;2023-03-31T08:00:39;9.30;99.90
16999;DHT22;10211;49.476;11.010;2023-03-31T08:03:05;9.30;99.90
16999;DHT22;10211;49.476;11.010;2023-03-31T08:05:32;9.30;99.90
16999;DHT22;10211;49.476;11.010;2023-03-31T08:08:00;9.30;99.90
16999;DHT22;10211;49.476;11.010;2023-03-31T08:10:27;9.20;99.90
16999;DHT22;10211;49.476;11.010;2023-03-31T08:12:54;9.20;99.90
16999;DHT22;10211;49.476;11.010;2023-03-31T08:15:21;9.20;99.90
16999;DHT22;10211;49.476;11.010;2023-03-31T08:17:48;9.10;99.90
16999;DHT22;10211;49.476;11.010;2023-03-31T08:20:15;9.10;99.90
16999;DHT22;10211;49.476;11.010;2023-03-31T08:22:41;9.10;99.90
16999;DHT22;10211;49.476;11.010;2023-03-31T08:25:10;9.10;99.90
16999;DHT22;10211;49.476;11.010;2023-03-31T08:27:38;9.10;99.90
16999;DHT22;10211;49.476;11.010;2023-03-31T08:30:06;9.20;99.90
16999;DHT22;10211;49.476;11.010;2023-03-31T08:32:34;9.20;99.90
16999;DHT22;10211;49.476;11.010;2023-03-31T08:35:01;9.20;99.90
16999;DHT22;10211;49.476;11.010;2023-03-31T08:37:28;9.30;99.90
16999;DHT22;10211;49.476;11.010;2023-03-31T08:39:56;9.30;99.90
16999;DHT22;10211;49.476;11.010;2023-03-31T08:42:31;9.40;99.90
16999;DHT22;10211;49.476;11.010;2023-03-31T08:45:02;9.50;99.90
16999;DHT22;10211;49.476;11.010;2023-03-31T08:47:32;9.50;99.90
16999;DHT22;10211;49.476;11.010;2023-03-31T08:50:03;9.60;99.90
16999;DHT22;10211;49.476;11.010;2023-03-31T08:52:34;9.70;99.90
16999;DHT22;10211;49.476;11.010;2023-03-31T08:55:05;9.80;99.90
16999;DHT22;10211;49.476;11.010;2023-03-31T08:57:39;9.80;99.90
16999;DHT22;10211;49.476;11.010;2023-03-31T09:00:14;9.80;99.90
16999;DHT22;10211;49.476;11.010;2023-03-31T09:02:44;10.00;99.90
16999;DHT22;10211;49.476;11.010;2023-03-31T09:05:34;10.30;99.90
16999;DHT22;10211;49.476;11.010;2023-03-31T09:08:10;10.60;99.90
16999;DHT22;10211;49.476;11.010;2023-03-31T09:10:45;10.50;99.90
16999;DHT22;10211;49.476;11.010;2023-03-31T09:16:32;10.50;99.90
16999;DHT22;10211;49.476;11.010;2023-03-31T09:19:02;10.50;99.90
16999;DHT22;10211;49.476;11.010;2023-03-31T09:21:31;10.30;99.90
16999;DHT22;10211;49.476;11.010;2023-03-31T09:24:03;10.30;99.90
16999;DHT22;10211;49.476;11.010;2023-03-31T09:26:36;10.40;99.90
16999;DHT22;10211;49.476;11.010;2023-03-31T09:29:12;10.50;99.90
16999;DHT22;10211;49.476;11.010;2023-03-31T09:31:43;10.50;99.90
16999;DHT22;10211;49.476;11.010;2023-03-31T09:34:14;10.80;99.90
16999;DHT22;10211;49.476;11.010;2023-03-31T09:36:41;11.30;99.90
16999;DHT22;10211;49.476;11.010;2023-03-31T09:39:11;11.10;99.90
16999;DHT22;10211;49.476;11.010;2023-03-31T09:41:41;11.10;99.90
16999;DHT22;10211;49.476;11.010;2023-03-31T09:44:23;11.40;99.90
16999;DHT22;10211;49.476;11.010;2023-03-31T09:46:50;11.60;99.90
16999;DHT22;10211;49.476;11.010;2023-03-31T09:49:20;11.80;99.90
16999;DHT22;10211;49.476;11.010;2023-03-31T09:51:48;12.00;99.90
16999;DHT22;10211;49.476;11.010;2023-03-31T09:54:23;12.70;99.90
16999;DHT22;10211;49.476;11.010;2023-03-31T09:56:54;15.20;99.90
16999;DHT22;10211;49.476;11.010;2023-03-31T09:59:29;18.00;99.90
16999;DHT22;10211;49.476;11.010;2023-03-31T10:01:58;20.00;99.90
16999;DHT22;10211;49.476;11.010;2023-03-31T10:04:28;21.60;99.90
16999;DHT22;10211;49.476;11.010;2023-03-31T10:06:56;23.60;99.90
16999;DHT22;10211;49.476;11.010;2023-03-31T10:09:26;22.60;99.90
16999;DHT22;10211;49.476;11.010;2023-03-31T10:11:58;21.00;99.90
16999;DHT22;10211;49.476;11.010;2023-03-31T10:14:34;18.70;99.90
16999;DHT22;10211;49.476;11.010;2023-03-31T10:17:05;18.40;99.90
16999;DHT22;10211;49.476;11.010;2023-03-31T10:19:33;19.20;99.90
16999;DHT22;10211;49.476;11.010;2023-03-31T10:22:01;19.10;99.90
16999;DHT22;10211;49.476;11.010;2023-03-31T10:24:36;17.70;99.90
16999;DHT22;10211;49.476;11.010;2023-03-31T10:27:04;16.70;99.90
16999;DHT22;10211;49.476;11.010;2023-03-31T10:29:33;16.30;99.90
16999;DHT22;10211;49.476;11.010;2023-03-31T10:32:07;16.00;99.90
16999;DHT22;10211;49.476;11.010;2023-03-31T10:34:38;15.70;99.90
16999;DHT22;10211;49.476;11.010;2023-03-31T10:37:08;15.60;99.90
16999;DHT22;10211;49.476;11.010;2023-03-31T10:39:36;15.40;99.90
16999;DHT22;10211;49.476;11.010;2023-03-31T10:42:04;15.80;99.90
16999;DHT22;10211;49.476;11.010;2023-03-31T10:44:34;16.40;99.90
16999;DHT22;10211;49.476;11.010;2023-03-31T10:47:15;18.80;98.90
16999;DHT22;10211;49.476;11.010;2023-03-31T10:49:43;19.40;95.00
16999;DHT22;10211;49.476;11.010;2023-03-31T10:52:17;20.40;91.30
16999;DHT22;10211;49.476;11.010;2023-03-31T10:54:57;20.70;89.20
16999;DHT22;10211;49.476;11.010;2023-03-31T10:57:30;21.00;84.50
16999;DHT22;10211;49.476;11.010;2023-03-31T11:00:15;19.70;86.20
16999;DHT22;10211;49.476;11.010;2023-03-31T11:03:00;19.70;89.30
16999;DHT22;10211;49.476;11.010;2023-03-31T11:05:32;20.70;88.20
16999;DHT22;10211;49.476;11.010;2023-03-31T11:08:14;22.60;79.00
16999;DHT22;10211;49.476;11.010;2023-03-31T11:10:58;21.50;77.10
16999;DHT22;10211;49.476;11.010;2023-03-31T11:13:31;18.80;82.30
16999;DHT22;10211;49.476;11.010;2023-03-31T11:16:10;17.20;89.00
16999;DHT22;10211;49.476;11.010;2023-03-31T11:18:49;17.80;90.00
16999;DHT22;10211;49.476;11.010;2023-03-31T11:21:24;20.20;85.40
16999;DHT22;10211;49.476;11.010;2023-03-31T11:24:03;21.90;80.60
16999;DHT22;10211;49.476;11.010;2023-03-31T11:26:39;23.40;73.90
16999;DHT22;10211;49.476;11.010;2023-03-31T11:29:23;23.30;70.50
16999;DHT22;10211;49.476;11.010;2023-03-31T11:32:11;21.50;72.80
16999;DHT22;10211;49.476;11.010;2023-03-31T11:34:58;19.40;77.40
16999;DHT22;10211;49.476;11.010;2023-03-31T11:37:53;18.00;80.90
16999;DHT22;10211;49.476;11.010;2023-03-31T11:40:33;16.90;85.40
16999;DHT22;10211;49.476;11.010;2023-03-31T11:43:06;16.20;86.20
16999;DHT22;10211;49.476;11.010;2023-03-31T11:45:40;15.80;87.50
16999;DHT22;10211;49.476;11.010;2023-03-31T11:48:16;17.40;87.80
16999;DHT22;10211;49.476;11.010;2023-03-31T11:50:45;21.30;76.90
16999;DHT22;10211;49.476;11.010;2023-03-31T11:53:16;21.60;73.60
16999;DHT22;10211;49.476;11.010;2023-03-31T11:55:47;20.00;75.30
16999;DHT22;10211;49.476;11.010;2023-03-31T11:58:17;18.40;80.60
16999;DHT22;10211;49.476;11.010;2023-03-31T12:00:48;17.20;84.30
16999;DHT22;10211;49.476;11.010;2023-03-31T12:03:21;16.20;86.50
16999;DHT22;10211;49.476;11.010;2023-03-31T12:05:50;15.80;87.90
16999;DHT22;10211;49.476;11.010;2023-03-31T12:08:23;16.20;86.40
16999;DHT22;10211;49.476;11.010;2023-03-31T12:10:58;16.60;85.20
16999;DHT22;10211;49.476;11.010;2023-03-31T12:13:35;17.60;84.80
16999;DHT22;10211;49.476;11.010;2023-03-31T12:16:08;19.10;84.80
16999;DHT22;10211;49.476;11.010;2023-03-31T12:18:39;20.50;81.30
16999;DHT22;10211;49.476;11.010;2023-03-31T12:21:06;20.50;78.80
16999;DHT22;10211;49.476;11.010;2023-03-31T12:23:38;20.10;79.40
16999;DHT22;10211;49.476;11.010;2023-03-31T12:26:14;19.50;79.10
16999;DHT22;10211;49.476;11.010;2023-03-31T12:28:44;19.80;79.70
16999;DHT22;10211;49.476;11.010;2023-03-31T12:31:17;20.40;77.70
16999;DHT22;10211;49.476;11.010;2023-03-31T12:33:53;20.50;76.00
16999;DHT22;10211;49.476;11.010;2023-03-31T12:36:29;20.10;76.30
16999;DHT22;10211;49.476;11.010;2023-03-31T12:39:15;19.50;77.30
16999;DHT22;10211;49.476;11.010;2023-03-31T12:41:57;18.50;79.70
16999;DHT22;10211;49.476;11.010;2023-03-31T12:44:35;17.70;82.80
16999;DHT22;10211;49.476;11.010;2023-03-31T12:47:33;16.80;84.60
16999;DHT22;10211;49.476;11.010;2023-03-31T12:50:34;16.30;87.50
16999;DHT22;10211;49.476;11.010;2023-03-31T12:53:07;16.40;87.90
16999;DHT22;10211;49.476;11.010;2023-03-31T12:55:45;16.70;87.00
16999;DHT22;10211;49.476;11.010;2023-03-31T12:58:38;16.80;87.10
16999;DHT22;10211;49.476;11.010;2023-03-31T13:01:08;17.00;86.60
16999;DHT22;10211;49.476;11.010;2023-03-31T13:04:06;16.50;86.70
16999;DHT22;10211;49.476;11.010;2023-03-31T13:06:54;15.50;94.00
16999;DHT22;10211;49.476;11.010;2023-03-31T13:09:45;12.20;99.90
16999;DHT22;10211;49.476;11.010;2023-03-31T13:12:15;10.60;99.90
16999;DHT22;10211;49.476;11.010;2023-03-31T13:14:44;9.90;99.90
16999;DHT22;10211;49.476;11.010;2023-03-31T13:17:22;9.60;99.90
16999;DHT22;10211;49.476;11.010;2023-03-31T13:19:50;9.40;99.90
16999;DHT22;10211;49.476;11.010;2023-03-31T13:22:33;9.30;99.90
16999;DHT22;10211;49.476;11.010;2023-03-31T13:31:00;10.40;99.90
16999;DHT22;10211;49.476;11.010;2023-03-31T13:33:33;11.60;99.90
16999;DHT22;10211;49.476;11.010;2023-03-31T13:36:23;13.20;99.90
16999;DHT22;10211;49.476;11.010;2023-03-31T13:39:05;15.00;99.90
16999;DHT22;10211;49.476;11.010;2023-03-31T13:41:43;16.00;99.90
16999;DHT22;10211;49.476;11.010;2023-03-31T13:44:42;16.50;99.90
16999;DHT22;10211;49.476;11.010;2023-03-31T13:47:37;16.50;99.90
16999;DHT22;10211;49.476;11.010;2023-03-31T13:50:29;16.00;99.90
16999;DHT22;10211;49.476;11.010;2023-03-31T13:53:03;15.40;99.90
16999;DHT22;10211;49.476;11.010;2023-03-31T13:55:48;14.80;99.90
16999;DHT22;10211;49.476;11.010;2023-03-31T13:58:43;14.40;99.90
16999;DHT22;10211;49.476;11.010;2023-03-31T14:01:30;14.30;99.90
16999;DHT22;10211;49.476;11.010;2023-03-31T14:04:11;14.10;99.90
16999;DHT22;10211;49.476;11.010;2023-03-31T14:06:47;13.80;99.90
16999;DHT22;10211;49.476;11.010;2023-03-31T14:09:21;13.60;99.90
16999;DHT22;10211;49.476;11.010;2023-03-31T14:11:50;13.70;99.90
16999;DHT22;10211;49.476;11.010;2023-03-31T14:14:17;13.90;99.90
16999;DHT22;10211;49.476;11.010;2023-03-31T14:16:46;14.00;99.90
16999;DHT22;10211;49.476;11.010;2023-03-31T14:19:37;14.10;99.90
16999;DHT22;10211;49.476;11.010;2023-03-31T14:22:15;14.00;99.90
16999;DHT22;10211;49.476;11.010;2023-03-31T14:24:49;14.20;99.90
16999;DHT22;10211;49.476;11.010;2023-03-31T14:27:29;14.50;99.90
16999;DHT22;10211;49.476;11.010;2023-03-31T14:30:03;14.60;99.90
16999;DHT22;10211;49.476;11.010;2023-03-31T14:32:37;14.60;99.90
16999;DHT22;10211;49.476;11.010;2023-03-31T14:35:23;14.80;99.90
16999;DHT22;10211;49.476;11.010;2023-03-31T14:37:53;14.80;99.90
16999;DHT22;10211;49.476;11.010;2023-03-31T14:40:22;14.60;99.90
16999;DHT22;10211;49.476;11.010;2023-03-31T14:42:51;14.40;99.90
16999;DHT22;10211;49.476;11.010;2023-03-31T14:45:20;14.40;99.90
16999;DHT22;10211;49.476;11.010;2023-03-31T14:47:53;14.30;99.90
16999;DHT22;10211;49.476;11.010;2023-03-31T14:50:20;14.20;99.90
16999;DHT22;10211;49.476;11.010;2023-03-31T14:52:48;14.10;99.90
16999;DHT22;10211;49.476;11.010;2023-03-31T14:55:16;14.30;99.90
16999;DHT22;10211;49.476;11.010;2023-03-31T14:57:46;14.50;99.90
16999;DHT22;10211;49.476;11.010;2023-03-31T15:00:21;14.50;99.90
16999;DHT22;10211;49.476;11.010;2023-03-31T15:02:51;14.30;99.90
16999;DHT22;10211;49.476;11.010;2023-03-31T15:05:24;14.10;99.90
16999;DHT22;10211;49.476;11.010;2023-03-31T15:07:54;13.90;99.90
16999;DHT22;10211;49.476;11.010;2023-03-31T15:10:22;13.80;99.90
16999;DHT22;10211;49.476;11.010;2023-03-31T15:12:49;13.90;99.90
16999;DHT22;10211;49.476;11.010;2023-03-31T15:15:19;14.00;99.90
16999;DHT22;10211;49.476;11.010;2023-03-31T15:17:47;14.10;99.90
16999;DHT22;10211;49.476;11.010;2023-03-31T15:20:25;14.20;99.90
16999;DHT22;10211;49.476;11.010;2023-03-31T15:22:53;14.20;99.90
16999;DHT22;10211;49.476;11.010;2023-03-31T15:25:20;14.00;99.90
16999;DHT22;10211;49.476;11.010;2023-03-31T15:27:51;14.10;99.90
16999;DHT22;10211;49.476;11.010;2023-03-31T15:30:22;14.10;99.90
16999;DHT22;10211;49.476;11.010;2023-03-31T15:32:50;14.10;99.80
16999;DHT22;10211;49.476;11.010;2023-03-31T15:35:20;14.10;99.90
16999;DHT22;10211;49.476;11.010;2023-03-31T15:37:49;14.20;99.90
16999;DHT22;10211;49.476;11.010;2023-03-31T15:40:18;14.20;99.90
16999;DHT22;10211;49.476;11.010;2023-03-31T15:42:48;14.00;99.90
16999;DHT22;10211;49.476;11.010;2023-03-31T15:45:39;14.00;99.90
16999;DHT22;10211;49.476;11.010;2023-03-31T15:48:18;14.10;99.70
16999;DHT22;10211;49.476;11.010;2023-03-31T15:50:46;14.30;99.50
16999;DHT22;10211;49.476;11.010;2023-03-31T15:53:26;14.30;99.30
16999;DHT22;10211;49.476;11.010;2023-03-31T15:55:55;14.40;98.70
16999;DHT22;10211;49.476;11.010;2023-03-31T15:58:45;14.40;99.20
16999;DHT22;10211;49.476;11.010;2023-03-31T16:01:14;14.30;98.20
16999;DHT22;10211;49.476;11.010;2023-03-31T16:03:43;14.30;98.40
16999;DHT22;10211;49.476;11.010;2023-03-31T16:06:16;14.10;98.30
16999;DHT22;10211;49.476;11.010;2023-03-31T16:08:47;13.90;98.30
16999;DHT22;10211;49.476;11.010;2023-03-31T16:11:17;13.80;98.30
16999;DHT22;10211;49.476;11.010;2023-03-31T16:13:47;13.50;98.60
16999;DHT22;10211;49.476;11.010;2023-03-31T16:16:18;13.30;98.70